Time;durP1;ratioP1;P1;durP2;ratioP2;P2;SDS_P1;SDS_P2;PMS_P1;PMS_P2;Temp;Humidity;BMP_temperature;BMP_pressure;BME280_temperature;BME280_humidity;BME280_pressure;Samples;Min_cycle;Max_cycle;Signal;HPM_P1;HPM_P2
2023/05/11 00:01:41;;;;;;;1.83;1.40;;;13.20;87.40;;;;;;5035070;28;20553;-62
2023/05/11 00:04:07;;;;;;;1.88;1.70;;;13.20;87.40;;;;;;5033964;28;20036;-62
2023/05/11 00:06:33;;;;;;;1.40;1.30;;;13.20;87.60;;;;;;5034385;28;20045;-63
2023/05/11 00:08:58;;;;;;;1.48;1.40;;;13.20;87.80;;;;;;5036106;28;20432;-63
2023/05/11 00:11:25;;;;;;;2.50;1.38;;;13.20;87.80;;;;;;5031011;28;20037;-61
2023/05/11 00:13:50;;;;;;;2.45;1.55;;;13.20;87.70;;;;;;5035208;28;20040;-63
2023/05/11 00:16:16;;;;;;;1.70;1.60;;;13.20;87.60;;;;;;5035941;28;20037;-62
2023/05/11 00:18:41;;;;;;;1.48;1.38;;;13.20;87.70;;;;;;5035168;28;20411;-63
2023/05/11 00:21:07;;;;;;;1.77;1.40;;;13.20;87.60;;;;;;5036975;28;20045;-62
2023/05/11 00:23:33;;;;;;;1.45;1.35;;;13.20;87.50;;;;;;5033257;28;20029;-63
2023/05/11 00:25:58;;;;;;;1.60;1.50;;;13.20;87.40;;;;;;5033934;28;20037;-63
2023/05/11 00:28:24;;;;;;;1.67;1.48;;;13.20;88.30;;;;;;5036980;28;20060;-62
2023/05/11 00:30:53;;;;;;;2.35;1.30;;;13.20;87.40;;;;;;5036999;28;20033;-62
2023/05/11 00:33:19;;;;;;;1.35;1.20;;;13.20;87.40;;;;;;5035139;28;20182;-63
2023/05/11 00:35:47;;;;;;;1.33;1.23;;;13.20;87.40;;;;;;5036340;28;20512;-61
2023/05/11 00:38:13;;;;;;;1.42;1.33;;;13.20;87.40;;;;;;5035121;28;20500;-63
2023/05/11 00:40:39;;;;;;;2.45;1.20;;;13.10;87.30;;;;;;5036965;28;20044;-63
2023/05/11 00:43:05;;;;;;;1.38;1.13;;;13.10;87.40;;;;;;5032720;28;20036;-63
2023/05/11 00:45:31;;;;;;;1.30;1.20;;;13.10;87.60;;;;;;5035568;28;20040;-63
2023/05/11 00:47:57;;;;;;;1.77;1.20;;;13.10;87.60;;;;;;5033841;28;20037;-63
2023/05/11 00:50:24;;;;;;;2.08;1.20;;;13.10;87.60;;;;;;5033265;28;20523;-63
2023/05/11 00:52:49;;;;;;;1.10;1.00;;;13.10;87.60;;;;;;5034813;28;20447;-63
2023/05/11 00:55:19;;;;;;;3.05;1.27;;;13.10;87.70;;;;;;5037243;28;20083;-62
2023/05/11 00:57:45;;;;;;;1.85;1.48;;;13.10;87.80;;;;;;5033143;28;20029;-62
2023/05/11 01:00:11;;;;;;;1.45;1.30;;;13.10;87.80;;;;;;5024542;28;20416;-63
2023/05/11 01:02:37;;;;;;;1.30;1.20;;;13.10;87.70;;;;;;5025471;28;20042;-63
2023/05/11 01:05:03;;;;;;;1.30;1.20;;;13.10;87.60;;;;;;5037127;28;20261;-63
2023/05/11 01:07:52;;;;;;;1.40;1.30;;;13.00;87.70;;;;;;5023424;28;20128;-62
2023/05/11 01:10:40;;;;;;;1.35;1.25;;;13.20;88.00;;;;;;5023499;28;20037;-62
2023/05/11 01:13:25;;;;;;;2.95;1.17;;;13.00;88.00;;;;;;5032805;28;20030;-63
2023/05/11 01:15:55;;;;;;;1.50;1.40;;;13.00;87.90;;;;;;5025323;28;20025;-63
2023/05/11 01:18:44;;;;;;;1.27;1.25;;;13.00;88.00;;;;;;5028648;28;20227;-61
2023/05/11 01:21:10;;;;;;;1.45;1.35;;;13.00;88.10;;;;;;5027294;28;20064;-62
2023/05/11 01:24:11;;;;;;;2.72;1.48;;;13.00;87.90;;;;;;5023402;28;20037;-62
2023/05/11 01:26:36;;;;;;;1.83;1.63;;;12.80;88.10;;;;;;5032026;28;20037;-62
2023/05/11 01:29:32;;;;;;;1.90;1.70;;;13.00;88.00;;;;;;5024768;28;20047;-62
2023/05/11 01:32:03;;;;;;;1.63;1.50;;;13.00;88.30;;;;;;5022665;28;20033;-62
2023/05/11 01:34:34;;;;;;;2.03;1.40;;;12.90;88.00;;;;;;5027473;28;20488;-62
2023/05/11 01:37:09;;;;;;;1.60;1.50;;;13.00;88.10;;;;;;5023929;28;20042;-62
2023/05/11 01:39:38;;;;;;;1.50;1.40;;;13.00;88.30;;;;;;5023734;28;20037;-62
2023/05/11 01:42:08;;;;;;;1.60;1.50;;;13.00;88.10;;;;;;5025926;28;20408;-62
2023/05/11 01:44:36;;;;;;;3.85;1.60;;;12.90;88.00;;;;;;5024945;28;20088;-63
2023/05/11 01:47:03;;;;;;;1.63;1.42;;;12.90;88.00;;;;;;5023418;28;20545;-62
2023/05/11 01:49:32;;;;;;;2.35;1.73;;;13.00;88.10;;;;;;5025326;28;20069;-62
2023/05/11 01:52:00;;;;;;;2.30;1.70;;;12.90;88.20;;;;;;5025193;28;20416;-63
2023/05/11 01:54:27;;;;;;;2.40;1.60;;;12.90;88.30;;;;;;5022474;28;20041;-63
2023/05/11 01:56:55;;;;;;;2.55;1.73;;;12.90;88.50;;;;;;5030750;28;20420;-62
2023/05/11 01:59:23;;;;;;;2.55;1.60;;;13.00;88.60;;;;;;5031888;28;20055;-63
2023/05/11 02:01:49;;;;;;;2.97;1.98;;;13.00;88.50;;;;;;5028451;28;20033;-62
2023/05/11 02:04:17;;;;;;;2.38;2.00;;;13.00;88.50;;;;;;5026723;28;20036;-62
2023/05/11 02:06:45;;;;;;;2.75;1.65;;;13.00;88.50;;;;;;5025267;28;20037;-63
2023/05/11 02:09:12;;;;;;;2.50;1.90;;;13.00;88.50;;;;;;5023145;28;20044;-62
2023/05/11 02:11:41;;;;;;;2.20;2.00;;;13.00;88.50;;;;;;5022779;28;20042;-63
2023/05/11 02:14:09;;;;;;;4.13;1.80;;;13.00;88.50;;;;;;5024570;28;20051;-61
2023/05/11 02:16:35;;;;;;;2.33;2.05;;;13.00;88.50;;;;;;5022422;28;20038;-63
2023/05/11 02:19:01;;;;;;;2.28;2.08;;;13.00;88.60;;;;;;5024211;28;20069;-63
2023/05/11 02:21:28;;;;;;;2.20;2.10;;;13.10;88.60;;;;;;5028066;28;20037;-63
2023/05/11 02:23:54;;;;;;;2.42;2.08;;;13.00;88.60;;;;;;5024494;28;20060;-63
2023/05/11 02:26:20;;;;;;;1.88;1.77;;;13.10;88.60;;;;;;5026015;28;20140;-63
2023/05/11 02:28:46;;;;;;;2.03;1.85;;;13.10;88.60;;;;;;5022880;28;20052;-62
2023/05/11 02:31:19;;;;;;;3.65;1.83;;;13.10;88.60;;;;;;5023572;28;20046;-62
2023/05/11 02:33:48;;;;;;;2.25;1.90;;;13.10;88.70;;;;;;5023608;28;20159;-62
2023/05/11 02:36:16;;;;;;;3.95;1.67;;;13.10;89.50;;;;;;5026032;28;20527;-63
2023/05/11 02:38:44;;;;;;;2.17;2.05;;;13.20;88.50;;;;;;5026288;28;20033;-62
2023/05/11 02:41:14;;;;;;;1.75;1.65;;;13.20;88.40;;;;;;5028285;28;20045;-62
2023/05/11 02:43:47;;;;;;;1.98;1.75;;;13.20;88.50;;;;;;5027938;28;20037;-62
2023/05/11 02:46:16;;;;;;;4.30;2.20;;;13.30;88.50;;;;;;5023878;28;20040;-63
2023/05/11 02:48:45;;;;;;;1.98;1.88;;;13.20;88.30;;;;;;5022172;28;20065;-62
2023/05/11 02:51:14;;;;;;;2.80;1.92;;;13.20;88.30;;;;;;5027611;28;20333;-62
2023/05/11 02:53:41;;;;;;;3.30;2.10;;;13.30;88.50;;;;;;5023540;28;20026;-62
2023/05/11 02:56:08;;;;;;;2.92;1.95;;;13.20;88.30;;;;;;5023311;28;20033;-62
2023/05/11 02:58:33;;;;;;;2.10;2.00;;;13.20;88.30;;;;;;5022429;28;20224;-63
2023/05/11 03:01:00;;;;;;;3.95;2.33;;;13.30;88.30;;;;;;5031024;28;20034;-63
2023/05/11 03:03:26;;;;;;;2.30;2.10;;;13.30;88.30;;;;;;5025932;28;20025;-63
2023/05/11 03:05:51;;;;;;;2.97;2.20;;;13.30;88.40;;;;;;5023859;28;20447;-63
2023/05/11 03:08:18;;;;;;;2.80;2.20;;;13.30;88.40;;;;;;5025175;28;20045;-62
2023/05/11 03:10:45;;;;;;;2.33;2.13;;;13.30;88.50;;;;;;5021149;28;20030;-62
2023/05/11 03:13:10;;;;;;;2.40;1.95;;;13.30;88.50;;;;;;5022123;28;20072;-63
2023/05/11 03:15:37;;;;;;;2.47;2.22;;;13.30;88.50;;;;;;5021851;28;20156;-62
2023/05/11 03:18:05;;;;;;;2.65;2.45;;;13.30;88.40;;;;;;5022436;28;20033;-62
2023/05/11 03:20:34;;;;;;;2.38;2.17;;;13.30;88.30;;;;;;5021603;28;20528;-62
2023/05/11 03:23:00;;;;;;;2.40;2.15;;;13.30;88.20;;;;;;5026060;28;20400;-62
2023/05/11 03:25:27;;;;;;;4.47;2.15;;;13.30;88.30;;;;;;5022347;28;20497;-62
2023/05/11 03:27:54;;;;;;;2.30;2.20;;;13.30;88.10;;;;;;5024327;28;20045;-62
2023/05/11 03:30:22;;;;;;;2.75;2.55;;;13.30;88.20;;;;;;5023194;28;20042;-62
2023/05/11 03:32:48;;;;;;;2.55;2.45;;;13.30;88.10;;;;;;5024174;28;20036;-62
2023/05/11 03:35:13;;;;;;;2.78;2.58;;;13.30;88.10;;;;;;5022867;28;20041;-62
2023/05/11 03:37:39;;;;;;;2.55;2.35;;;13.40;88.10;;;;;;5025266;28;20124;-61
2023/05/11 03:40:07;;;;;;;2.75;2.55;;;13.30;88.00;;;;;;5023384;28;20041;-62
2023/05/11 03:42:33;;;;;;;3.10;2.80;;;13.30;88.10;;;;;;5022358;28;20065;-61
2023/05/11 03:45:00;;;;;;;2.40;2.20;;;13.30;88.20;;;;;;5024370;28;20526;-62
2023/05/11 03:47:27;;;;;;;2.60;2.40;;;13.30;88.30;;;;;;5019975;28;20477;-62
2023/05/11 03:49:54;;;;;;;3.03;2.72;;;13.30;88.20;;;;;;5023451;28;20021;-62
2023/05/11 03:52:20;;;;;;;2.83;2.47;;;13.40;88.20;;;;;;5021977;28;20051;-61
2023/05/11 03:54:46;;;;;;;3.17;2.88;;;13.30;88.00;;;;;;5024809;28;20145;-62
2023/05/11 03:57:13;;;;;;;3.83;2.65;;;13.30;88.10;;;;;;5029509;28;20568;-62
2023/05/11 03:59:39;;;;;;;4.22;2.90;;;13.30;88.10;;;;;;5028233;28;20131;-62
2023/05/11 04:02:05;;;;;;;3.10;2.80;;;13.40;88.10;;;;;;5029885;28;20057;-63
2023/05/11 04:04:31;;;;;;;2.55;2.35;;;13.30;88.00;;;;;;5028693;28;20218;-62
2023/05/11 04:06:57;;;;;;;3.50;2.30;;;13.30;88.00;;;;;;5029328;28;20033;-61
2023/05/11 04:09:23;;;;;;;2.85;2.65;;;13.30;88.00;;;;;;5033579;28;20033;-62
2023/05/11 04:11:49;;;;;;;3.67;2.58;;;13.30;88.10;;;;;;5028052;28;20090;-63
2023/05/11 04:14:16;;;;;;;4.30;2.80;;;13.30;88.10;;;;;;5030338;28;20104;-62
2023/05/11 04:16:42;;;;;;;2.88;2.65;;;13.30;88.10;;;;;;5032897;28;20042;-62
2023/05/11 04:19:07;;;;;;;2.80;2.60;;;13.30;88.20;;;;;;5026235;28;20037;-62
2023/05/11 04:21:33;;;;;;;4.28;3.20;;;13.20;88.30;;;;;;5021893;28;20091;-62
2023/05/11 04:23:59;;;;;;;3.65;2.72;;;13.20;88.40;;;;;;5022296;28;20056;-63
2023/05/11 04:26:25;;;;;;;2.60;2.40;;;13.20;88.40;;;;;;5018530;28;20535;-63
2023/05/11 04:28:51;;;;;;;3.42;3.00;;;13.30;88.50;;;;;;5019822;28;20044;-62
2023/05/11 04:31:16;;;;;;;3.00;2.70;;;13.20;88.50;;;;;;5022224;28;20107;-63
2023/05/11 04:33:42;;;;;;;4.43;2.90;;;13.20;88.50;;;;;;5023948;28;20404;-62
2023/05/11 04:36:08;;;;;;;3.00;2.80;;;13.20;88.60;;;;;;5026728;28;20033;-61
2023/05/11 04:38:33;;;;;;;3.08;2.88;;;13.20;88.70;;;;;;5030354;28;20509;-63
2023/05/11 04:41:06;;;;;;;3.20;2.90;;;13.20;88.60;;;;;;5032411;28;20479;-62
2023/05/11 04:43:32;;;;;;;3.20;2.85;;;13.20;89.70;;;;;;5031169;28;20069;-63
2023/05/11 04:45:58;;;;;;;3.25;2.95;;;13.20;88.80;;;;;;5031184;28;20049;-61
2023/05/11 04:48:25;;;;;;;4.32;2.92;;;13.20;88.60;;;;;;5032620;28;20037;-63
2023/05/11 04:50:51;;;;;;;3.47;3.10;;;13.30;88.60;;;;;;5032845;28;20036;-63
2023/05/11 04:53:16;;;;;;;5.30;4.22;;;13.30;88.50;;;;;;5030696;28;20100;-61
2023/05/11 04:55:42;;;;;;;3.20;2.90;;;13.30;88.60;;;;;;5033384;28;20029;-63
2023/05/11 04:58:08;;;;;;;3.95;3.55;;;13.30;88.60;;;;;;5033342;28;20496;-62
2023/05/11 05:00:35;;;;;;;3.85;3.20;;;13.30;88.50;;;;;;5031682;28;20531;-62
2023/05/11 05:03:01;;;;;;;5.65;4.07;;;13.30;88.40;;;;;;5034232;28;20128;-62
2023/05/11 05:05:26;;;;;;;2.85;2.65;;;13.30;88.50;;;;;;5031558;28;20122;-61
2023/05/11 05:07:52;;;;;;;2.58;2.42;;;13.20;88.50;;;;;;5028071;28;20123;-61
2023/05/11 05:10:17;;;;;;;2.50;2.30;;;13.20;88.50;;;;;;5031880;28;20060;-62
2023/05/11 05:12:43;;;;;;;2.40;2.25;;;13.30;88.60;;;;;;5027476;28;20029;-61
2023/05/11 05:15:10;;;;;;;2.50;2.30;;;13.20;88.60;;;;;;5032062;28;20049;-61
2023/05/11 05:17:35;;;;;;;2.75;2.55;;;13.20;88.50;;;;;;5032322;28;20085;-61
2023/05/11 05:20:03;;;;;;;3.50;3.30;;;13.20;88.50;;;;;;5033907;28;20143;-62
2023/05/11 05:22:30;;;;;;;3.60;3.30;;;13.20;88.70;;;;;;5032379;28;20041;-63
2023/05/11 05:24:55;;;;;;;3.47;3.17;;;13.20;88.70;;;;;;5032814;28;20260;-61
2023/05/11 05:27:21;;;;;;;3.67;3.10;;;13.20;88.80;;;;;;5032291;28;20495;-61
2023/05/11 05:29:47;;;;;;;3.00;2.63;;;13.20;88.80;;;;;;5032253;28;20029;-61
2023/05/11 05:32:12;;;;;;;7.28;2.60;;;13.30;89.00;;;;;;5031740;28;20033;-63
2023/05/11 05:34:38;;;;;;;2.63;2.42;;;13.30;88.90;;;;;;5026908;28;20029;-63
2023/05/11 05:37:03;;;;;;;2.47;2.28;;;13.30;88.70;;;;;;5025816;28;20599;-62
2023/05/11 05:39:29;;;;;;;4.68;2.97;;;13.30;88.70;;;;;;5023181;28;20033;-62
2023/05/11 05:41:55;;;;;;;5.68;3.67;;;13.30;88.80;;;;;;5030464;28;20053;-62
2023/05/11 05:44:21;;;;;;;5.28;3.45;;;13.30;88.60;;;;;;5032137;28;20500;-62
2023/05/11 05:46:46;;;;;;;2.67;2.28;;;13.30;88.70;;;;;;5026716;28;20046;-62
2023/05/11 05:49:12;;;;;;;2.97;2.53;;;13.30;88.70;;;;;;5030673;28;20124;-63
2023/05/11 05:51:38;;;;;;;2.40;2.20;;;13.30;88.70;;;;;;5031624;28;20037;-63
2023/05/11 05:54:03;;;;;;;2.33;2.08;;;13.30;88.80;;;;;;5037241;28;20071;-65
2023/05/11 05:56:30;;;;;;;2.28;2.05;;;13.30;88.80;;;;;;5034299;28;20071;-63
2023/05/11 05:58:56;;;;;;;2.00;1.90;;;13.30;88.80;;;;;;5032115;28;21114;-62
2023/05/11 06:01:21;;;;;;;1.70;1.60;;;13.30;88.90;;;;;;5033890;28;20087;-62
2023/05/11 06:03:47;;;;;;;1.80;1.70;;;13.30;88.50;;;;;;5033972;28;20065;-63
2023/05/11 06:06:13;;;;;;;2.15;1.60;;;13.30;88.40;;;;;;5031667;28;20049;-62
2023/05/11 06:08:38;;;;;;;2.03;1.83;;;13.30;88.40;;;;;;5019483;28;20045;-62
2023/05/11 06:11:04;;;;;;;2.38;2.17;;;13.20;89.20;;;;;;5025949;28;20135;-62
2023/05/11 06:13:30;;;;;;;2.65;2.30;;;13.20;88.60;;;;;;5028300;28;20037;-63
2023/05/11 06:15:55;;;;;;;2.38;2.08;;;13.20;88.80;;;;;;5031233;28;20117;-63
2023/05/11 06:18:21;;;;;;;3.55;2.65;;;13.20;88.80;;;;;;5031739;28;20484;-62
2023/05/11 06:20:46;;;;;;;1.73;1.58;;;13.20;88.90;;;;;;5029847;28;20120;-61
2023/05/11 06:23:12;;;;;;;1.80;1.70;;;13.20;89.00;;;;;;5026497;28;20100;-61
2023/05/11 06:25:38;;;;;;;2.00;1.80;;;13.20;89.00;;;;;;5027291;28;20039;-62
2023/05/11 06:28:03;;;;;;;1.95;1.70;;;13.20;89.00;;;;;;5026013;28;20041;-63
2023/05/11 06:30:30;;;;;;;3.28;1.80;;;13.20;89.00;;;;;;5026634;28;20464;-62
2023/05/11 06:32:55;;;;;;;2.00;1.80;;;13.20;89.20;;;;;;5026688;28;20030;-63
2023/05/11 06:35:21;;;;;;;1.48;1.38;;;13.20;89.20;;;;;;5027854;28;20025;-62
2023/05/11 06:37:47;;;;;;;1.60;1.50;;;13.20;88.90;;;;;;5027394;28;20111;-62
2023/05/11 06:40:14;;;;;;;1.90;1.70;;;13.30;88.80;;;;;;5029941;28;20049;-63
2023/05/11 06:42:40;;;;;;;4.20;1.58;;;13.20;88.90;;;;;;5027493;28;20041;-62
2023/05/11 06:45:07;;;;;;;1.60;1.50;;;13.20;89.10;;;;;;5027454;28;20531;-62
2023/05/11 06:47:32;;;;;;;1.35;1.25;;;13.10;89.20;;;;;;5028156;28;20037;-62
2023/05/11 06:49:58;;;;;;;1.77;1.67;;;13.10;89.00;;;;;;5026383;28;20033;-63
2023/05/11 06:52:23;;;;;;;1.88;1.70;;;13.10;89.00;;;;;;5028571;28;20032;-62
2023/05/11 06:54:49;;;;;;;1.92;1.70;;;13.10;89.30;;;;;;5028027;28;20037;-61
2023/05/11 06:57:15;;;;;;;1.50;1.40;;;13.10;89.60;;;;;;5027703;28;20327;-62
2023/05/11 06:59:41;;;;;;;1.90;1.40;;;13.10;89.70;;;;;;5028900;28;20405;-62
2023/05/11 07:02:06;;;;;;;1.70;1.60;;;13.00;89.50;;;;;;5028579;28;20087;-61
2023/05/11 07:04:32;;;;;;;1.42;1.33;;;13.00;89.60;;;;;;5020631;28;20072;-62
2023/05/11 07:06:58;;;;;;;1.38;1.33;;;13.00;89.70;;;;;;5028635;28;20361;-62
2023/05/11 07:09:23;;;;;;;1.38;1.30;;;13.00;89.30;;;;;;5031162;28;20045;-61
2023/05/11 07:11:50;;;;;;;1.45;1.35;;;13.00;89.10;;;;;;5025768;28;20033;-62
2023/05/11 07:14:16;;;;;;;1.20;1.10;;;12.90;89.40;;;;;;5026460;28;20087;-61
2023/05/11 07:16:42;;;;;;;1.50;1.40;;;12.90;89.80;;;;;;5027897;28;20037;-62
2023/05/11 07:19:08;;;;;;;1.60;1.50;;;12.90;89.70;;;;;;5027726;28;20116;-62
2023/05/11 07:21:35;;;;;;;1.98;1.23;;;12.90;90.00;;;;;;5028023;28;20041;-62
2023/05/11 07:24:00;;;;;;;1.40;1.25;;;12.90;90.10;;;;;;5031829;28;20490;-62
2023/05/11 07:26:26;;;;;;;2.88;2.38;;;12.90;90.10;;;;;;5033419;28;20040;-62
2023/05/11 07:28:52;;;;;;;2.17;1.80;;;12.90;90.10;;;;;;5029535;28;20445;-62
2023/05/11 07:31:17;;;;;;;1.25;1.15;;;12.90;90.20;;;;;;5018649;28;20052;-61
2023/05/11 07:33:43;;;;;;;0.90;0.90;;;13.00;90.20;;;;;;5028387;28;20043;-63
2023/05/11 07:36:08;;;;;;;1.98;1.45;;;13.00;90.20;;;;;;5029416;28;20487;-62
2023/05/11 07:38:35;;;;;;;1.73;0.90;;;13.00;90.20;;;;;;5029547;28;20037;-62
2023/05/11 07:41:00;;;;;;;1.15;1.10;;;13.00;90.20;;;;;;5028269;28;20108;-61
2023/05/11 07:43:26;;;;;;;0.82;0.82;;;13.10;90.10;;;;;;5026406;28;20167;-61
2023/05/11 07:45:51;;;;;;;2.25;1.13;;;13.10;90.20;;;;;;5028718;28;20040;-60
2023/05/11 07:48:17;;;;;;;0.90;0.77;;;13.10;90.20;;;;;;5024457;28;20056;-62
2023/05/11 07:50:43;;;;;;;0.77;0.77;;;13.10;90.20;;;;;;5027379;28;20510;-60
2023/05/11 07:53:09;;;;;;;1.27;1.10;;;13.20;90.00;;;;;;5028220;28;20056;-61
2023/05/11 07:55:35;;;;;;;1.15;1.05;;;13.20;90.00;;;;;;5027790;28;20744;-62
2023/05/11 07:58:01;;;;;;;1.95;1.58;;;13.20;90.00;;;;;;5030009;28;20037;-62
2023/05/11 08:00:26;;;;;;;1.38;1.13;;;13.30;90.00;;;;;;5024724;28;20049;-62
2023/05/11 08:02:52;;;;;;;0.82;0.82;;;13.20;90.00;;;;;;5023328;28;20091;-61
2023/05/11 08:05:18;;;;;;;1.27;1.20;;;13.30;90.00;;;;;;5028916;28;20401;-61
2023/05/11 08:07:45;;;;;;;1.30;1.20;;;13.30;89.90;;;;;;5018391;28;20477;-61
2023/05/11 08:10:11;;;;;;;1.20;0.93;;;13.30;90.00;;;;;;5032135;28;20033;-62
2023/05/11 08:12:37;;;;;;;1.95;0.80;;;13.40;90.00;;;;;;5031523;28;20713;-62
2023/05/11 08:15:04;;;;;;;1.85;1.13;;;13.40;89.40;;;;;;5031940;28;20123;-61
2023/05/11 08:17:30;;;;;;;1.20;1.10;;;13.40;89.10;;;;;;5031252;28;20504;-61
2023/05/11 08:19:56;;;;;;;1.25;1.10;;;13.50;89.30;;;;;;5034227;28;20090;-61
2023/05/11 08:22:22;;;;;;;0.70;0.70;;;13.50;89.30;;;;;;5029797;28;20061;-61
2023/05/11 08:24:49;;;;;;;2.40;1.40;;;13.50;89.30;;;;;;5031162;28;20044;-62
2023/05/11 08:27:15;;;;;;;1.40;1.30;;;13.60;89.70;;;;;;5034327;28;20565;-61
2023/05/11 08:29:41;;;;;;;2.17;1.45;;;13.70;89.40;;;;;;5030079;28;20046;-61
2023/05/11 08:32:06;;;;;;;1.80;1.42;;;13.70;89.40;;;;;;5031910;28;20029;-62
2023/05/11 08:34:32;;;;;;;2.83;1.92;;;13.80;89.00;;;;;;5032868;28;20174;-62
2023/05/11 08:37:00;;;;;;;4.45;2.60;;;13.80;88.60;;;;;;5033881;28;20040;-62
2023/05/11 08:39:26;;;;;;;4.00;2.72;;;13.80;88.50;;;;;;5031243;28;20129;-61
2023/05/11 08:41:53;;;;;;;2.10;1.70;;;13.90;88.10;;;;;;5033488;28;20075;-62
2023/05/11 08:44:20;;;;;;;2.47;1.98;;;13.90;87.90;;;;;;5030451;28;20036;-62
2023/05/11 08:46:48;;;;;;;2.22;1.98;;;13.90;87.90;;;;;;5028539;28;20040;-62
2023/05/11 08:49:14;;;;;;;2.25;1.95;;;14.00;87.90;;;;;;5032447;28;20084;-62
2023/05/11 08:51:40;;;;;;;2.63;2.40;;;14.00;87.80;;;;;;5033421;28;20525;-62
2023/05/11 08:54:06;;;;;;;3.03;2.35;;;14.00;87.70;;;;;;5036162;28;20083;-62
2023/05/11 08:56:35;;;;;;;2.60;2.15;;;14.00;87.20;;;;;;5035796;28;20060;-62
2023/05/11 08:59:03;;;;;;;2.80;2.50;;;14.00;87.10;;;;;;5034435;28;20033;-62
2023/05/11 09:01:30;;;;;;;2.70;2.25;;;14.10;87.70;;;;;;5036888;28;20471;-61
2023/05/11 09:03:57;;;;;;;2.97;2.67;;;14.10;87.50;;;;;;5035060;28;20072;-62
2023/05/11 09:06:25;;;;;;;2.97;2.55;;;14.10;87.40;;;;;;5032810;28;20041;-62
2023/05/11 09:08:52;;;;;;;3.55;3.00;;;14.10;87.70;;;;;;5031718;28;20536;-62
2023/05/11 09:11:17;;;;;;;4.38;3.42;;;14.10;88.90;;;;;;5025957;28;20493;-61
2023/05/11 09:13:43;;;;;;;5.35;3.47;;;14.20;87.80;;;;;;5031379;28;20033;-62
2023/05/11 09:16:08;;;;;;;5.07;3.42;;;14.20;87.30;;;;;;5030587;28;20128;-62
2023/05/11 09:18:34;;;;;;;3.38;2.92;;;14.30;87.60;;;;;;5024338;28;20057;-62
2023/05/11 09:21:03;;;;;;;4.68;3.03;;;14.40;86.90;;;;;;5033374;28;20065;-62
2023/05/11 09:23:31;;;;;;;4.22;3.03;;;14.20;86.10;;;;;;5029542;28;20064;-62
2023/05/11 09:25:56;;;;;;;2.85;2.58;;;14.20;86.00;;;;;;5033737;28;20021;-62
2023/05/11 09:28:26;;;;;;;2.53;2.30;;;14.20;86.20;;;;;;5033519;28;20607;-62
2023/05/11 09:30:52;;;;;;;2.88;2.58;;;14.20;86.00;;;;;;5032799;28;20039;-62
2023/05/11 09:33:23;;;;;;;2.95;2.05;;;14.20;85.90;;;;;;5022022;28;20041;-62
2023/05/11 09:35:49;;;;;;;2.90;2.20;;;14.10;85.90;;;;;;5029804;28;20539;-63
2023/05/11 09:38:18;;;;;;;1.83;1.38;;;14.10;86.30;;;;;;5031452;28;20041;-62
2023/05/11 09:40:53;;;;;;;0.80;0.80;;;14.10;86.00;;;;;;5031986;28;20044;-63
2023/05/11 09:43:21;;;;;;;0.95;0.68;;;14.10;86.30;;;;;;5035386;28;20128;-63
2023/05/11 09:45:50;;;;;;;0.40;0.40;;;14.10;86.40;;;;;;5035930;28;20041;-62
2023/05/11 09:48:17;;;;;;;1.77;0.40;;;14.10;85.40;;;;;;5032316;28;20036;-63
2023/05/11 09:50:42;;;;;;;0.55;0.50;;;14.00;85.30;;;;;;5032718;28;20033;-64
2023/05/11 09:53:08;;;;;;;1.55;0.52;;;14.00;86.00;;;;;;5027653;28;20035;-63
2023/05/11 09:55:34;;;;;;;0.80;0.70;;;14.00;86.40;;;;;;5031891;28;20037;-62
2023/05/11 09:58:00;;;;;;;1.45;0.95;;;14.10;86.30;;;;;;5030444;28;20041;-63
2023/05/11 10:00:25;;;;;;;0.80;0.80;;;14.10;86.10;;;;;;5030270;28;20528;-63
2023/05/11 10:03:06;;;;;;;1.65;1.00;;;14.10;86.20;;;;;;5030870;28;20048;-62
2023/05/11 10:05:33;;;;;;;0.70;0.70;;;14.10;86.60;;;;;;5030956;28;20033;-62
2023/05/11 10:08:04;;;;;;;0.88;0.60;;;14.00;86.40;;;;;;5027857;28;20037;-62
2023/05/11 10:10:32;;;;;;;0.50;0.50;;;14.00;86.00;;;;;;5024805;28;20038;-63
2023/05/11 10:13:00;;;;;;;0.70;0.68;;;14.00;85.90;;;;;;5034973;28;20030;-63
2023/05/11 10:15:27;;;;;;;0.75;0.60;;;14.00;85.50;;;;;;5030674;28;20095;-62
2023/05/11 10:17:58;;;;;;;0.88;0.80;;;14.00;85.90;;;;;;5034087;28;20530;-63
2023/05/11 10:20:24;;;;;;;0.80;0.80;;;13.90;86.10;;;;;;5034337;28;20544;-63
2023/05/11 10:22:52;;;;;;;0.75;0.60;;;13.90;86.50;;;;;;5034099;28;20464;-63
2023/05/11 10:25:21;;;;;;;0.63;0.40;;;14.00;86.80;;;;;;5035272;28;20067;-61
2023/05/11 10:27:47;;;;;;;1.10;0.60;;;14.00;86.90;;;;;;5034515;28;20539;-62
2023/05/11 10:30:13;;;;;;;0.60;0.60;;;14.00;86.00;;;;;;5034688;28;20033;-63
2023/05/11 10:32:38;;;;;;;0.65;0.65;;;14.10;86.20;;;;;;5033140;28;20511;-63
2023/05/11 10:35:05;;;;;;;0.50;0.50;;;14.10;86.10;;;;;;5034420;28;20072;-63
2023/05/11 10:37:32;;;;;;;0.65;0.60;;;14.10;86.20;;;;;;5031018;28;20033;-63
2023/05/11 10:39:58;;;;;;;0.75;0.70;;;14.10;86.20;;;;;;5034157;28;20036;-63
2023/05/11 10:43:01;;;;;;;0.80;0.80;;;14.10;85.90;;;;;;5026739;28;20171;-63
2023/05/11 10:45:32;;;;;;;0.70;0.55;;;14.20;85.90;;;;;;5028653;28;20379;-62
2023/05/11 10:48:35;;;;;;;0.50;0.50;;;14.20;86.20;;;;;;5031103;28;20040;-63
2023/05/11 10:51:19;;;;;;;0.40;0.40;;;14.20;86.40;;;;;;5030641;28;20119;-62
2023/05/11 10:54:04;;;;;;;0.50;0.50;;;14.30;85.70;;;;;;5031574;28;20444;-63
2023/05/11 10:56:53;;;;;;;1.40;0.63;;;14.30;85.50;;;;;;5034315;28;20030;-62
2023/05/11 10:59:43;;;;;;;0.50;0.50;;;14.30;85.20;;;;;;5033814;28;20034;-63
2023/05/11 11:02:10;;;;;;;0.70;0.40;;;14.40;86.00;;;;;;5033389;28;20037;-63
2023/05/11 11:04:47;;;;;;;0.95;0.50;;;14.40;86.00;;;;;;5029953;28;20030;-63
2023/05/11 11:07:17;;;;;;;0.40;0.40;;;14.40;85.90;;;;;;5029593;28;20055;-62
2023/05/11 11:09:48;;;;;;;0.50;0.50;;;14.40;85.70;;;;;;5031149;28;20489;-63
2023/05/11 11:12:14;;;;;;;0.60;0.60;;;14.50;85.30;;;;;;5020706;28;20037;-63
2023/05/11 11:15:05;;;;;;;0.60;0.60;;;14.50;85.30;;;;;;5032958;28;20140;-63
2023/05/11 11:17:34;;;;;;;2.45;0.50;;;14.50;84.60;;;;;;5032091;28;20647;-63
2023/05/11 11:20:02;;;;;;;0.60;0.60;;;14.50;84.50;;;;;;5026771;28;20877;-62
2023/05/11 11:22:34;;;;;;;0.50;0.50;;;14.50;84.80;;;;;;5029803;28;20496;-63
2023/05/11 11:25:10;;;;;;;0.40;0.40;;;14.50;84.80;;;;;;5028196;28;20045;-63
2023/05/11 11:27:54;;;;;;;0.40;0.40;;;14.50;85.00;;;;;;5031867;28;20080;-61
2023/05/11 11:30:21;;;;;;;0.43;0.43;;;14.50;85.90;;;;;;5030920;28;20030;-63
2023/05/11 11:32:49;;;;;;;0.52;0.52;;;14.50;86.20;;;;;;5027703;28;20309;-63
2023/05/11 11:35:46;;;;;;;0.57;0.57;;;14.60;86.10;;;;;;5028582;28;20049;-62
2023/05/11 11:38:20;;;;;;;0.68;0.68;;;14.60;86.70;;;;;;5029498;28;20424;-63
2023/05/11 11:40:53;;;;;;;0.60;0.60;;;14.70;86.60;;;;;;5030723;28;20554;-63
2023/05/11 11:43:19;;;;;;;0.70;0.70;;;14.70;86.20;;;;;;5030060;28;20099;-62
2023/05/11 11:45:59;;;;;;;0.73;0.73;;;14.80;86.10;;;;;;5029679;28;20037;-62
2023/05/11 11:48:28;;;;;;;0.60;0.60;;;14.90;86.30;;;;;;5033638;28;20198;-62
2023/05/11 11:51:01;;;;;;;0.63;0.63;;;14.80;85.70;;;;;;5030057;28;20114;-62
2023/05/11 11:53:36;;;;;;;1.02;0.70;;;14.90;85.30;;;;;;5031866;28;20044;-63
2023/05/11 11:56:06;;;;;;;;;;;14.90;86.00;;;;;;5034197;28;20392;-63
2023/05/11 11:58:41;;;;;;;1.02;0.60;;;15.10;85.30;;;;;;5035076;28;19924;-62
2023/05/11 12:01:07;;;;;;;;;;;15.00;84.80;;;;;;5025678;28;20038;-61
2023/05/11 12:03:35;;;;;;;1.05;0.50;;;15.00;84.60;;;;;;5033338;28;19967;-63
2023/05/11 12:06:01;;;;;;;0.50;0.50;;;15.00;85.00;;;;;;5035236;28;20034;-62
2023/05/11 12:08:31;;;;;;;1.17;0.50;;;15.00;84.80;;;;;;5034306;28;20034;-63
2023/05/11 12:10:58;;;;;;;0.88;0.52;;;15.00;85.00;;;;;;5029560;28;20975;-63
2023/05/11 12:13:24;;;;;;;0.82;0.50;;;15.00;85.20;;;;;;5033937;28;20029;-63
2023/05/11 12:16:16;;;;;;;0.45;0.45;;;15.00;85.00;;;;;;5031745;28;20037;-63
2023/05/11 12:18:51;;;;;;;0.68;0.68;;;15.00;84.20;;;;;;5032344;28;20087;-62
2023/05/11 12:21:20;;;;;;;0.50;0.50;;;15.10;83.70;;;;;;5035649;28;20067;-61
2023/05/11 12:24:15;;;;;;;0.85;0.40;;;15.10;83.60;;;;;;5033889;28;20037;-63
2023/05/11 12:26:40;;;;;;;0.40;0.40;;;15.10;83.90;;;;;;5026704;28;20041;-63
2023/05/11 12:29:07;;;;;;;1.20;0.40;;;15.20;84.40;;;;;;5032661;28;20587;-63
2023/05/11 12:31:41;;;;;;;0.45;0.45;;;15.20;84.50;;;;;;5032397;28;20095;-62
2023/05/11 12:34:21;;;;;;;0.40;0.40;;;15.20;83.90;;;;;;5033894;28;20045;-62
2023/05/11 12:36:48;;;;;;;0.50;0.50;;;15.20;84.10;;;;;;5031927;28;20041;-62
2023/05/11 12:39:23;;;;;;;1.00;0.47;;;15.30;84.20;;;;;;5033608;28;20041;-62
2023/05/11 12:41:50;;;;;;;0.40;0.40;;;15.30;84.10;;;;;;5036001;28;20052;-63
2023/05/11 12:44:17;;;;;;;0.45;0.45;;;15.40;83.80;;;;;;5034750;28;20509;-63
2023/05/11 12:46:48;;;;;;;0.43;0.43;;;15.40;83.10;;;;;;5032470;28;20147;-62
2023/05/11 12:49:21;;;;;;;0.40;0.40;;;15.40;82.60;;;;;;5033066;28;20049;-63
2023/05/11 12:51:59;;;;;;;0.50;0.30;;;15.40;83.40;;;;;;5031457;28;20497;-63
2023/05/11 12:54:33;;;;;;;0.40;0.40;;;15.50;83.40;;;;;;5033452;28;20041;-62